Time;durP1;ratioP1;P1;durP2;ratioP2;P2;SDS_P1;SDS_P2;PMS_P1;PMS_P2;Temp;Humidity;BMP_temperature;BMP_pressure;BME280_temperature;BME280_humidity;BME280_pressure;Samples;Min_cycle;Max_cycle;Signal;HPM_P1;HPM_P2
2022/05/14 04:17:55;;;;;;;26.10;19.45;;;;;;;17.69;100.00;100806.00;5411121;23;20072;-73
2022/05/14 04:20:41;;;;;;;18.35;14.13;;;;;;;17.23;100.00;100807.13;4899427;29;20033;-73
2022/05/14 04:23:28;;;;;;;22.02;15.50;;;;;;;17.67;100.00;100815.78;4891947;29;20340;-73
2022/05/14 04:26:14;;;;;;;19.02;14.90;;;;;;;17.43;100.00;100820.38;4880329;29;20474;-72
2022/05/14 04:29:00;;;;;;;23.05;14.85;;;;;;;17.75;100.00;100821.59;4879485;29;20037;-72
2022/05/14 04:31:46;;;;;;;20.17;15.73;;;;;;;18.20;100.00;100830.09;4880310;29;20025;-72
2022/05/14 04:34:32;;;;;;;21.08;17.50;;;;;;;17.98;100.00;100829.38;4867482;29;20041;-73
2022/05/14 04:37:18;;;;;;;20.85;17.58;;;;;;;17.99;100.00;100828.44;4880388;29;20043;-73
2022/05/14 04:40:09;;;;;;;21.15;16.85;;;;;;;17.92;100.00;100838.47;4868110;29;20025;-72
2022/05/14 04:42:54;;;;;;;21.05;17.15;;;;;;;18.07;100.00;100831.59;4879967;29;20024;-73
2022/05/14 04:45:42;;;;;;;20.85;16.40;;;;;;;17.94;100.00;100833.97;4880052;29;20101;-73
2022/05/14 04:48:27;;;;;;;19.50;17.13;;;;;;;18.26;100.00;100824.50;4879856;29;20371;-71
2022/05/14 04:51:13;;;;;;;18.58;15.07;;;;;;;18.03;100.00;100838.84;4867828;29;20033;-73
2022/05/14 04:53:59;;;;;;;22.23;16.70;;;;;;;18.30;100.00;100850.84;4866659;29;20032;-73
2022/05/14 04:56:45;;;;;;;17.77;14.85;;;;;;;18.14;100.00;100851.59;4866637;29;20085;-72
2022/05/14 04:59:31;;;;;;;17.45;13.95;;;;;;;18.12;100.00;100856.09;4866892;29;20021;-73
2022/05/14 05:05:21;;;;;;;17.55;15.45;;;;;;;18.38;100.00;100859.31;4880746;29;20032;-73
2022/05/14 05:08:07;;;;;;;12.38;11.07;;;;;;;18.20;100.00;100844.22;4880230;29;20097;-73
2022/05/14 05:10:54;;;;;;;11.98;10.50;;;;;;;18.42;100.00;100836.16;4879502;29;20040;-74
2022/05/14 05:13:40;;;;;;;13.15;10.18;;;;;;;18.53;100.00;100839.16;4880659;29;20454;-73
2022/05/14 05:16:26;;;;;;;10.48;8.23;;;;;;;18.33;100.00;100836.56;4883203;29;20033;-73
2022/05/14 05:19:11;;;;;;;10.60;8.45;;;;;;;18.56;100.00;100839.00;4865175;29;20057;-73
2022/05/14 05:21:57;;;;;;;10.80;9.25;;;;;;;18.65;100.00;100834.09;4864946;29;20033;-73
2022/05/14 05:24:46;;;;;;;12.25;9.18;;;;;;;18.90;100.00;100839.09;4863732;29;20026;-73
2022/05/14 05:27:32;;;;;;;10.63;7.13;;;;;;;18.78;100.00;100831.72;4865456;29;20041;-73
2022/05/14 05:30:18;;;;;;;9.52;7.07;;;;;;;19.02;100.00;100838.47;4865454;29;20025;-73
2022/05/14 05:33:03;;;;;;;9.95;7.50;;;;;;;19.17;100.00;100830.56;4864610;29;20030;-73
2022/05/14 05:35:50;;;;;;;11.82;7.60;;;;;;;19.48;100.00;100829.91;4864301;29;20033;-73
2022/05/14 05:38:37;;;;;;;8.70;7.75;;;;;;;19.70;100.00;100822.53;4864303;29;20037;-73
2022/05/14 05:41:24;;;;;;;10.32;8.52;;;;;;;19.93;100.00;100821.28;4864649;29;20344;-72
2022/05/14 05:44:10;;;;;;;10.63;7.68;;;;;;;20.17;100.00;100822.66;4864795;29;20037;-73
2022/05/14 05:46:56;;;;;;;7.90;6.82;;;;;;;20.19;100.00;100818.97;4864527;29;20110;-73
2022/05/14 05:49:42;;;;;;;9.30;7.35;;;;;;;20.64;100.00;100827.03;4864651;29;20033;-73
2022/05/14 05:52:28;;;;;;;10.50;7.45;;;;;;;20.79;100.00;100834.16;4864717;29;20116;-74
2022/05/14 05:58:19;;;;;;;14.32;8.48;;;;;;;21.35;100.00;100826.38;4864520;29;20036;-73
2022/05/14 06:01:05;;;;;;;11.02;8.63;;;;;;;21.53;100.00;100827.94;4863798;29;20120;-73
2022/05/14 06:03:51;;;;;;;8.40;7.60;;;;;;;21.75;100.00;100836.38;4863909;29;20029;-73
2022/05/14 06:06:41;;;;;;;9.70;8.10;;;;;;;22.08;100.00;100831.63;4863281;29;20045;-73
2022/05/14 06:09:29;;;;;;;11.70;8.50;;;;;;;22.45;100.00;100838.13;4863721;29;20431;-72
2022/05/14 06:12:15;;;;;;;10.77;8.30;;;;;;;22.65;100.00;100832.38;4863028;29;20041;-72
2022/05/14 06:15:01;;;;;;;8.77;6.45;;;;;;;22.86;100.00;100831.84;4863645;29;20406;-73
2022/05/14 06:17:47;;;;;;;11.50;6.40;;;;;;;22.98;100.00;100833.69;4871588;29;20108;-72
2022/05/14 06:20:35;;;;;;;10.32;6.13;;;;;;;22.64;100.00;100828.88;4868963;29;20112;-73
2022/05/14 06:23:21;;;;;;;8.55;6.07;;;;;;;23.08;100.00;100832.09;4882532;29;20041;-72
2022/05/14 06:26:08;;;;;;;13.85;6.25;;;;;;;23.25;100.00;100839.03;4869411;29;20386;-73
2022/05/14 06:28:54;;;;;;;8.02;6.40;;;;;;;23.46;100.00;100834.91;4868604;29;20028;-73
2022/05/14 06:31:42;;;;;;;9.48;6.50;;;;;;;22.31;100.00;100828.31;4882499;29;20360;-72
2022/05/14 06:34:27;;;;;;;9.32;6.78;;;;;;;22.99;100.00;100829.22;4881952;29;20037;-72
2022/05/14 06:37:14;;;;;;;13.32;6.60;;;;;;;22.78;100.00;100836.84;4882138;29;20025;-72
2022/05/14 06:40:00;;;;;;;12.25;7.07;;;;;;;23.13;100.00;100838.03;4881671;29;20458;-72
2022/05/14 06:42:45;;;;;;;8.75;6.97;;;;;;;22.96;100.00;100842.78;4881856;29;20041;-72
2022/05/14 06:45:31;;;;;;;13.30;7.20;;;;;;;23.22;100.00;100850.81;4882636;29;20060;-74
2022/05/14 06:48:17;;;;;;;12.73;7.30;;;;;;;23.46;100.00;100855.47;4881948;29;20096;-72
2022/05/14 06:51:07;;;;;;;10.15;7.53;;;;;;;22.60;100.00;100863.88;4882406;29;20522;-73
2022/05/14 06:53:58;;;;;;;10.25;7.50;;;;;;;21.99;100.00;100874.84;4881746;29;20052;-72
2022/05/14 06:56:44;;;;;;;9.32;7.05;;;;;;;21.88;100.00;100876.47;4881513;29;20040;-72
2022/05/14 06:59:32;;;;;;;14.18;8.00;;;;;;;21.73;100.00;100883.63;4881914;29;20040;-74
2022/05/14 07:02:18;;;;;;;10.02;7.55;;;;;;;21.82;100.00;100877.72;4882234;29;20387;-73
2022/05/14 07:08:09;;;;;;;9.27;7.30;;;;;;;22.40;100.00;100886.50;4882187;29;20025;-73
2022/05/14 07:10:55;;;;;;;10.60;6.95;;;;;;;22.80;100.00;100891.03;4881045;29;20032;-73
2022/05/14 07:13:41;;;;;;;11.98;8.18;;;;;;;22.98;100.00;100889.81;4868044;29;20490;-72
2022/05/14 07:16:27;;;;;;;10.88;7.07;;;;;;;23.42;100.00;100894.06;4880863;29;20033;-73
2022/05/14 07:19:13;;;;;;;8.40;7.07;;;;;;;24.03;100.00;100902.31;4881087;29;20060;-73
2022/05/14 07:22:00;;;;;;;11.20;7.30;;;;;;;24.31;100.00;100907.44;4881207;29;20044;-73
2022/05/14 07:24:45;;;;;;;9.52;6.50;;;;;;;24.63;100.00;100909.53;4880607;29;20032;-73
2022/05/14 07:27:31;;;;;;;9.05;6.63;;;;;;;24.70;100.00;100902.78;4867657;29;20123;-72
2022/05/14 07:30:17;;;;;;;12.93;6.68;;;;;;;24.78;100.00;100905.75;4881008;29;20436;-73
2022/05/14 07:33:03;;;;;;;13.52;6.80;;;;;;;24.38;100.00;100919.41;4880962;29;20032;-73
2022/05/14 07:35:48;;;;;;;14.60;9.88;;;;;;;24.14;100.00;100918.47;4880855;29;20029;-73
2022/05/14 07:38:36;;;;;;;9.52;7.95;;;;;;;24.34;100.00;100910.75;4879562;29;20072;-73
2022/05/14 07:41:22;;;;;;;11.90;7.75;;;;;;;24.83;100.00;100908.09;4880283;29;20092;-73
2022/05/14 07:44:13;;;;;;;11.07;7.32;;;;;;;24.29;100.00;100923.59;4880474;29;20110;-72
2022/05/14 07:46:59;;;;;;;16.33;7.18;;;;;;;24.84;100.00;100921.41;4880357;29;20379;-72
2022/05/14 07:49:48;;;;;;;9.93;6.75;;;;;;;25.25;100.00;100921.00;4880430;29;20451;-73
2022/05/14 07:52:35;;;;;;;12.13;6.32;;;;;;;25.02;100.00;100921.84;4880509;29;20037;-73
2022/05/14 07:55:22;;;;;;;10.07;5.70;;;;;;;25.60;100.00;100927.28;4881168;29;20037;-73
2022/05/14 07:58:08;;;;;;;7.35;6.22;;;;;;;25.62;100.00;100936.94;4880372;29;20033;-73
2022/05/14 08:00:55;;;;;;;9.95;6.35;;;;;;;25.10;100.00;100928.38;4880642;29;20025;-73
2022/05/14 08:03:41;;;;;;;10.77;6.07;;;;;;;26.45;100.00;100933.94;4880410;29;20033;-72
2022/05/14 08:06:27;;;;;;;8.05;6.20;;;;;;;26.15;100.00;100940.88;4879931;29;20096;-73
2022/05/14 08:09:12;;;;;;;10.38;6.57;;;;;;;25.75;100.00;100935.03;4880034;29;20033;-73
2022/05/14 08:11:59;;;;;;;9.95;6.35;;;;;;;26.25;100.00;100939.19;4879976;29;20096;-73
2022/05/14 08:14:44;;;;;;;7.75;5.43;;;;;;;26.00;100.00;100942.09;4880757;29;20371;-73
2022/05/14 08:17:30;;;;;;;7.35;5.50;;;;;;;26.01;100.00;100941.97;4880393;29;20128;-73
2022/05/14 08:20:16;;;;;;;7.00;5.70;;;;;;;26.59;100.00;100938.25;4881008;29;20036;-73
2022/05/14 08:26:12;;;;;;;9.82;5.65;;;;;;;27.09;100.00;100943.91;4880730;29;20033;-73
2022/05/14 08:28:58;;;;;;;8.20;5.65;;;;;;;28.12;100.00;100940.59;4880549;29;20466;-72
2022/05/14 08:31:44;;;;;;;6.85;4.70;;;;;;;27.87;91.94;100941.81;4881046;29;20412;-72
2022/05/14 08:34:30;;;;;;;7.72;5.22;;;;;;;28.01;96.68;100937.97;4880669;29;20033;-73
2022/05/14 08:37:16;;;;;;;7.45;4.90;;;;;;;27.58;95.17;100928.09;4867188;29;20699;-73
2022/05/14 08:40:17;;;;;;;7.28;5.47;;;;;;;28.31;97.37;100936.16;4881039;29;20044;-73
2022/05/14 08:43:12;;;;;;;7.00;4.10;;;;;;;28.04;94.19;100933.16;4879273;29;20056;-73
2022/05/14 08:45:59;;;;;;;5.35;4.35;;;;;;;28.12;85.84;100941.41;4880003;29;20025;-74
2022/05/14 08:48:50;;;;;;;4.82;4.32;;;;;;;28.73;85.61;100936.94;4879897;29;20033;-73
2022/05/14 08:51:44;;;;;;;6.63;4.50;;;;;;;29.06;84.12;100934.78;4870938;29;20044;-74
2022/05/14 08:54:30;;;;;;;5.93;5.00;;;;;;;28.86;84.31;100941.09;4870341;29;20040;-74
2022/05/14 08:57:54;;;;;;;7.28;4.43;;;;;;;29.16;83.37;100935.66;4871019;29;20029;-74
2022/05/14 09:00:40;;;;;;;6.32;4.55;;;;;;;29.13;78.46;100929.69;4882878;29;20367;-74
2022/05/14 09:03:26;;;;;;;6.45;5.00;;;;;;;29.10;76.08;100925.41;4883743;29;20025;-74
2022/05/14 09:06:11;;;;;;;9.65;5.30;;;;;;;29.49;72.95;100931.72;4857543;29;20044;-75
2022/05/14 09:08:57;;;;;;;7.90;4.63;;;;;;;29.84;71.99;100931.97;4871022;29;20060;-73
2022/05/14 09:11:54;;;;;;;6.90;5.03;;;;;;;29.36;65.05;100934.66;4884178;29;20348;-74
2022/05/14 09:14:40;;;;;;;16.90;5.93;;;;;;;29.57;65.76;100930.00;4883578;29;20029;-72
2022/05/14 09:17:29;;;;;;;6.70;5.65;;;;;;;29.08;64.55;100927.41;4883504;29;20080;-73
2022/05/14 09:20:25;;;;;;;8.77;5.57;;;;;;;29.34;65.23;100930.41;4884390;29;20057;-73
2022/05/14 09:23:11;;;;;;;7.53;5.43;;;;;;;29.04;65.43;100925.09;4882823;29;20049;-72
2022/05/14 09:26:08;;;;;;;5.95;5.30;;;;;;;28.34;66.41;100919.72;4883617;29;20111;-72
2022/05/14 09:29:01;;;;;;;11.65;5.90;;;;;;;28.43;67.85;100926.16;4883686;29;20040;-74
2022/05/14 09:31:55;;;;;;;15.90;6.38;;;;;;;29.55;63.11;100925.72;4871043;29;20111;-73
2022/05/14 09:34:41;;;;;;;9.02;6.18;;;;;;;30.06;62.21;100926.28;4870250;29;20036;-72
2022/05/14 09:37:27;;;;;;;8.35;5.80;;;;;;;29.92;61.70;100922.16;4870201;29;20031;-73
2022/05/14 09:40:40;;;;;;;8.23;6.10;;;;;;;29.46;62.13;100922.03;4884219;29;20386;-71
2022/05/14 09:43:36;;;;;;;7.18;5.63;;;;;;;29.74;60.43;100921.19;4882868;29;20029;-73
2022/05/14 09:46:32;;;;;;;6.95;6.00;;;;;;;28.59;66.12;100913.00;4869928;29;20036;-73
2022/05/14 09:49:24;;;;;;;9.85;6.40;;;;;;;29.94;63.30;100919.31;4883167;29;20043;-74
2022/05/14 09:52:13;;;;;;;10.25;5.88;;;;;;;29.86;62.89;100927.31;4883108;29;20443;-74
2022/05/14 09:55:04;;;;;;;8.13;6.07;;;;;;;29.35;64.38;100926.72;4882636;29;20040;-73
2022/05/14 09:58:00;;;;;;;8.75;6.30;;;;;;;29.22;65.54;100927.00;4883353;29;20037;-73
2022/05/14 10:00:45;;;;;;;7.28;5.95;;;;;;;28.87;66.24;100926.59;4882071;29;20028;-72
2022/05/14 10:03:42;;;;;;;12.20;6.15;;;;;;;28.32;68.77;100937.84;4869641;29;20383;-73
2022/05/14 10:06:36;;;;;;;9.65;6.22;;;;;;;28.37;74.96;100932.06;4857607;29;20056;-72
2022/05/14 10:09:28;;;;;;;7.18;5.97;;;;;;;28.61;75.03;100938.84;4882631;29;20025;-72
2022/05/14 10:12:34;;;;;;;7.75;6.50;;;;;;;28.64;71.96;100929.66;4869224;29;20033;-73
2022/05/14 10:15:38;;;;;;;10.10;7.22;;;;;;;28.40;71.55;100938.03;4882850;29;20096;-72
2022/05/14 10:18:43;;;;;;;12.50;7.07;;;;;;;28.55;74.41;100931.31;4881902;29;20057;-73
2022/05/14 10:21:38;;;;;;;8.48;6.13;;;;;;;28.79;70.03;100930.97;4882867;29;20096;-74
2022/05/14 10:28:18;;;;;;;11.45;6.75;;;;;;;27.75;75.46;100931.19;4882720;29;20165;-73
2022/05/14 10:31:30;;;;;;;10.93;6.28;;;;;;;28.46;73.70;100923.19;4868862;29;20040;-73
2022/05/14 10:34:21;;;;;;;20.42;6.30;;;;;;;28.77;72.49;100923.00;4881925;29;20033;-74
2022/05/14 10:37:16;;;;;;;7.95;6.57;;;;;;;28.85;71.70;100919.66;4869411;29;20029;-73
2022/05/14 10:40:10;;;;;;;14.68;6.85;;;;;;;28.62;72.10;100920.84;4882932;29;20104;-73
2022/05/14 10:42:59;;;;;;;12.95;6.35;;;;;;;27.86;73.62;100915.88;4881365;29;20033;-74
2022/05/14 10:45:47;;;;;;;10.73;6.32;;;;;;;27.98;72.67;100909.44;4882849;29;20029;-73
2022/05/14 10:48:37;;;;;;;7.82;6.45;;;;;;;27.94;74.36;100917.91;4881507;29;20037;-73
2022/05/14 10:51:28;;;;;;;7.70;6.88;;;;;;;28.51;73.69;100902.94;4869187;29;20466;-73
2022/05/14 10:54:20;;;;;;;13.88;6.65;;;;;;;29.03;72.48;100908.06;4881658;29;20446;-74
2022/05/14 10:57:15;;;;;;;15.70;6.80;;;;;;;27.92;74.92;100901.88;4882022;29;20029;-73
2022/05/14 11:00:32;;;;;;;8.80;7.25;;;;;;;28.99;71.46;100893.13;4881828;29;20074;-74
2022/05/14 11:03:27;;;;;;;7.57;6.82;;;;;;;29.13;71.09;100891.91;4881577;29;20036;-75
2022/05/14 11:06:13;;;;;;;10.68;6.45;;;;;;;28.60;72.68;100885.91;4868171;29;20041;-73
2022/05/14 11:08:59;;;;;;;11.45;6.95;;;;;;;28.76;73.54;100882.72;4881243;29;20447;-74
2022/05/14 11:11:57;;;;;;;11.05;6.63;;;;;;;29.35;71.88;100883.50;4880475;29;20025;-74
2022/05/14 11:14:44;;;;;;;7.90;6.30;;;;;;;29.30;71.46;100885.78;4881943;29;20052;-74
2022/05/14 11:17:38;;;;;;;9.77;6.75;;;;;;;28.76;71.98;100877.31;4881152;29;20063;-74
2022/05/14 11:20:24;;;;;;;10.25;7.20;;;;;;;28.48;76.07;100875.41;4881786;29;20371;-75
2022/05/14 11:23:12;;;;;;;9.85;6.88;;;;;;;28.83;75.50;100879.31;4867881;29;20029;-74
2022/05/14 11:26:17;;;;;;;11.05;7.15;;;;;;;27.80;81.70;100877.81;4881900;29;20043;-73
2022/05/14 11:29:17;;;;;;;11.50;7.40;;;;;;;28.81;76.56;100875.06;4880882;29;20092;-74
2022/05/14 11:32:10;;;;;;;10.00;7.13;;;;;;;29.56;70.37;100871.56;4869162;29;20032;-74
2022/05/14 11:34:59;;;;;;;9.02;7.53;;;;;;;29.45;68.33;100863.63;4881445;29;20055;-74
2022/05/14 11:37:48;;;;;;;15.20;7.38;;;;;;;29.42;69.70;100861.22;4881217;29;20033;-74
2022/05/14 11:40:33;;;;;;;8.27;6.90;;;;;;;29.49;69.45;100858.78;4881254;29;20092;-75
2022/05/14 11:43:32;;;;;;;11.25;7.45;;;;;;;29.62;69.54;100854.81;4881261;29;20104;-75
2022/05/14 11:46:35;;;;;;;8.02;7.10;;;;;;;28.59;69.66;100849.16;4880733;29;20117;-75
2022/05/14 11:49:32;;;;;;;10.70;7.10;;;;;;;29.59;68.29;100854.25;4880927;29;20191;-75
2022/05/14 11:52:27;;;;;;;11.98;7.20;;;;;;;29.43;66.23;100845.84;4880921;29;20515;-75
2022/05/14 11:55:22;;;;;;;8.68;7.30;;;;;;;29.23;68.57;100844.16;4867380;29;20035;-75
2022/05/14 11:58:21;;;;;;;10.60;7.18;;;;;;;29.52;67.49;100842.28;4881259;29;20033;-74
2022/05/14 12:01:12;;;;;;;8.73;7.13;;;;;;;30.40;66.39;100836.38;4880470;29;20029;-73
2022/05/14 12:04:01;;;;;;;10.80;8.50;;;;;;;30.41;66.25;100835.38;4880947;29;20469;-73
2022/05/14 12:06:50;;;;;;;11.57;7.85;;;;;;;30.64;64.85;100828.56;4867161;29;20029;-75
2022/05/14 12:09:54;;;;;;;9.30;7.53;;;;;;;30.76;63.42;100830.06;4881306;29;20028;-75
2022/05/14 12:13:21;;;;;;;8.65;7.75;;;;;;;30.51;65.35;100824.50;4880149;29;20116;-75
2022/05/14 12:16:07;;;;;;;10.48;8.00;;;;;;;30.58;66.18;100818.31;4846528;29;20041;-74
2022/05/14 12:18:54;;;;;;;12.60;8.15;;;;;;;30.76;65.34;100819.25;4880374;29;20041;-73
2022/05/14 12:21:40;;;;;;;9.90;8.00;;;;;;;31.11;63.28;100818.41;4880494;29;20081;-74
2022/05/14 12:24:28;;;;;;;10.75;8.75;;;;;;;29.50;68.41;100820.00;4883527;29;20037;-74
2022/05/14 12:27:16;;;;;;;11.98;8.52;;;;;;;30.14;67.38;100810.19;4884894;29;20028;-75
2022/05/14 12:33:27;;;;;;;11.30;8.10;;;;;;;29.54;66.76;100806.03;4885108;29;20517;-74
2022/05/14 12:36:13;;;;;;;14.73;8.27;;;;;;;28.94;69.27;100802.78;4870284;29;20029;-74
2022/05/14 12:39:03;;;;;;;10.95;8.02;;;;;;;29.52;67.71;100805.34;4884797;29;20033;-75
2022/05/14 12:41:55;;;;;;;11.30;8.48;;;;;;;29.22;67.91;100788.47;4883775;29;20085;-74
2022/05/14 12:44:44;;;;;;;12.43;8.57;;;;;;;29.45;66.75;100790.72;4883798;29;20033;-74
2022/05/14 12:47:34;;;;;;;10.30;8.00;;;;;;;30.06;65.16;100778.44;4883814;29;20029;-73
2022/05/14 12:50:30;;;;;;;9.38;7.63;;;;;;;30.40;62.48;100778.72;4884351;29;20104;-74
2022/05/14 12:53:16;;;;;;;11.60;7.93;;;;;;;30.83;60.82;100774.31;4883985;29;20032;-74
2022/05/14 12:56:04;;;;;;;9.75;7.90;;;;;;;31.01;60.46;100775.19;4884719;29;20029;-75
2022/05/14 12:58:53;;;;;;;8.88;7.97;;;;;;;30.85;59.51;100764.22;4884493;29;20041;-73
2022/05/14 13:01:39;;;;;;;11.73;9.00;;;;;;;30.22;60.91;100762.47;4884166;29;20029;-74
2022/05/14 13:04:33;;;;;;;13.63;7.95;;;;;;;30.09;61.71;100764.63;4871069;29;20029;-75
2022/05/14 13:07:19;;;;;;;9.20;7.53;;;;;;;30.31;60.15;100758.88;4883762;29;20043;-74
2022/05/14 13:10:08;;;;;;;8.23;7.38;;;;;;;30.89;58.03;100765.59;4883564;29;20033;-75
2022/05/14 13:12:59;;;;;;;9.45;7.32;;;;;;;30.81;58.93;100756.53;4884047;29;20065;-74
2022/05/14 13:15:53;;;;;;;9.30;7.50;;;;;;;30.37;59.31;100755.56;4883950;29;20029;-74
2022/05/14 13:18:43;;;;;;;8.82;7.70;;;;;;;30.86;60.11;100754.25;4883539;29;20078;-75
2022/05/14 13:21:33;;;;;;;10.50;7.57;;;;;;;30.32;58.42;100749.75;4883398;29;20036;-74
2022/05/14 13:24:27;;;;;;;12.68;7.97;;;;;;;30.05;60.06;100744.31;4869883;29;20025;-74
2022/05/14 13:27:12;;;;;;;11.32;7.40;;;;;;;30.49;59.80;100748.94;4870750;29;20057;-75
2022/05/14 13:30:09;;;;;;;10.52;7.45;;;;;;;30.93;58.18;100741.75;4883592;29;20044;-74
2022/05/14 13:33:06;;;;;;;11.43;7.47;;;;;;;30.40;57.91;100739.03;4883172;29;20033;-74
2022/05/14 13:39:17;;;;;;;9.60;7.88;;;;;;;30.86;57.74;100733.44;4883432;29;20056;-74
2022/05/14 13:42:10;;;;;;;10.45;8.00;;;;;;;30.84;56.78;100745.41;4883380;29;20029;-75
2022/05/14 13:45:07;;;;;;;9.48;7.13;;;;;;;31.06;56.53;100744.94;4883708;29;20037;-75
2022/05/14 13:47:58;;;;;;;13.15;7.82;;;;;;;30.81;57.83;100743.00;4883400;29;20111;-74
2022/05/14 13:50:44;;;;;;;10.02;7.45;;;;;;;31.02;56.75;100744.38;4883649;29;20041;-74
2022/05/14 13:53:35;;;;;;;12.75;7.60;;;;;;;30.74;57.96;100744.66;4883295;29;20104;-75
2022/05/14 13:56:21;;;;;;;8.48;7.22;;;;;;;30.39;56.67;100745.44;4883294;29;20032;-74
2022/05/14 13:59:22;;;;;;;8.57;7.07;;;;;;;30.52;56.82;100743.22;4883464;29;20061;-75
2022/05/14 14:02:24;;;;;;;11.13;7.57;;;;;;;30.88;57.29;100747.66;4869983;29;20051;-74
2022/05/14 14:05:19;;;;;;;10.15;7.57;;;;;;;30.37;57.32;100742.03;4883245;29;20033;-75
2022/05/14 14:08:08;;;;;;;12.85;7.30;;;;;;;30.64;57.54;100746.53;4882898;29;20037;-74
2022/05/14 14:10:57;;;;;;;15.13;10.00;;;;;;;30.82;57.90;100739.31;4883037;29;20037;-75
2022/05/14 14:13:42;;;;;;;10.65;9.35;;;;;;;31.04;57.22;100731.56;4881865;29;20165;-75
2022/05/14 14:16:28;;;;;;;9.88;8.05;;;;;;;31.14;56.98;100735.00;4882143;29;20075;-73
2022/05/14 14:19:14;;;;;;;12.30;7.43;;;;;;;30.77;57.95;100738.91;4882309;29;20052;-75
2022/05/14 14:22:04;;;;;;;11.80;7.10;;;;;;;30.80;58.38;100733.19;4882992;29;20462;-75
2022/05/14 14:24:51;;;;;;;10.43;7.47;;;;;;;30.43;57.98;100727.06;4881334;29;20051;-74
2022/05/14 14:27:37;;;;;;;8.80;7.90;;;;;;;30.51;59.18;100733.41;4870245;29;20109;-74
2022/05/14 14:30:23;;;;;;;11.48;7.82;;;;;;;30.25;60.99;100724.31;4868799;29;20366;-74
2022/05/14 14:33:09;;;;;;;11.38;7.85;;;;;;;30.01;61.80;100721.28;4882655;29;20033;-75
2022/05/14 14:35:54;;;;;;;12.60;8.32;;;;;;;30.22;64.30;100721.91;4882571;29;20087;-73
2022/05/14 14:38:41;;;;;;;18.55;9.23;;;;;;;30.60;62.86;100724.38;4882975;29;20124;-73
2022/05/14 14:41:27;;;;;;;11.02;8.10;;;;;;;30.62;62.19;100718.81;4882429;29;20029;-73
2022/05/14 14:44:13;;;;;;;8.55;7.53;;;;;;;30.75;62.55;100714.75;4868802;29;20036;-75
2022/05/14 14:46:59;;;;;;;9.15;7.97;;;;;;;30.57;60.34;100705.72;4869110;29;20103;-75
2022/05/14 14:49:44;;;;;;;10.70;8.10;;;;;;;30.40;61.82;100701.16;4882375;29;20048;-75
2022/05/14 14:52:31;;;;;;;12.18;8.40;;;;;;;30.36;61.18;100688.97;4882203;29;20377;-74
2022/05/14 14:55:20;;;;;;;9.80;8.00;;;;;;;30.02;62.60;100681.63;4869147;29;20029;-75
2022/05/14 14:58:08;;;;;;;12.50;8.02;;;;;;;29.84;65.18;100676.19;4882356;29;20028;-76
2022/05/14 15:00:54;;;;;;;10.50;7.90;;;;;;;29.73;65.49;100684.47;4881500;29;20462;-74
2022/05/14 15:04:04;;;;;;;8.77;7.88;;;;;;;29.81;66.79;100681.88;4882568;29;20033;-74
2022/05/14 15:06:50;;;;;;;12.85;8.20;;;;;;;29.66;66.17;100682.53;4880749;29;20097;-75
2022/05/14 15:09:39;;;;;;;9.55;8.43;;;;;;;29.76;67.93;100691.41;4868231;29;20029;-74
2022/05/14 15:12:25;;;;;;;13.07;8.27;;;;;;;29.91;68.54;100689.94;4881099;29;20029;-74
2022/05/14 15:15:12;;;;;;;11.00;8.48;;;;;;;29.86;66.08;100687.66;4881858;29;20049;-74
2022/05/14 15:18:01;;;;;;;9.40;8.40;;;;;;;30.00;67.71;100689.88;4881583;29;20064;-74
2022/05/14 15:20:47;;;;;;;9.68;8.57;;;;;;;29.77;67.99;100693.16;4882341;29;20029;-74
2022/05/14 15:23:33;;;;;;;11.45;8.55;;;;;;;29.65;69.34;100699.75;4881963;29;20037;-73
2022/05/14 15:26:21;;;;;;;13.45;7.18;;;;;;;29.38;66.65;100710.44;4882103;29;20028;-74
2022/05/14 15:29:07;;;;;;;9.30;7.75;;;;;;;28.52;71.40;100715.06;4881037;29;20111;-74
2022/05/14 15:32:12;;;;;;;10.90;7.13;;;;;;;28.70;68.87;100718.75;4881708;29;20423;-74
2022/05/14 15:34:58;;;;;;;11.18;7.95;;;;;;;27.98;72.80;100715.47;4881023;29;20044;-74
2022/05/14 15:37:45;;;;;;;11.85;7.72;;;;;;;28.63;69.78;100721.16;4881811;29;20352;-74
2022/05/14 15:40:41;;;;;;;16.70;9.40;;;;;;;28.11;72.25;100709.81;4868198;29;20021;-74
2022/05/14 15:43:30;;;;;;;15.15;8.73;;;;;;;27.97;73.66;100712.94;4868578;29;20103;-74
2022/05/14 15:46:24;;;;;;;16.23;8.10;;;;;;;28.43;71.06;100714.03;4867986;29;20439;-74
2022/05/14 15:49:14;;;;;;;30.55;13.93;;;;;;;28.15;74.83;100730.13;4880814;29;20414;-74
2022/05/14 15:52:01;;;;;;;26.05;13.65;;;;;;;27.99;77.34;100740.56;4881356;29;20462;-74
2022/05/14 15:54:47;;;;;;;17.45;7.57;;;;;;;27.88;78.78;100727.22;4880448;29;20029;-74
2022/05/14 15:57:34;;;;;;;9.60;7.28;;;;;;;27.52;81.30;100725.88;4867575;29;20481;-75
2022/05/14 16:00:22;;;;;;;7.68;6.55;;;;;;;27.81;80.50;100728.72;4880530;29;20033;-74
2022/05/14 16:03:08;;;;;;;12.43;6.72;;;;;;;27.43;80.90;100737.44;4868313;29;20036;-74
2022/05/14 16:05:56;;;;;;;9.57;6.65;;;;;;;27.19;82.70;100728.78;4881247;29;20128;-74
2022/05/14 16:08:44;;;;;;;10.25;6.70;;;;;;;27.32;83.09;100729.44;4867787;29;20402;-74
2022/05/14 16:17:28;;;;;;;8.90;6.70;;;;;;;27.69;80.78;100730.66;4880842;29;20053;-74
2022/05/14 16:20:14;;;;;;;9.57;6.18;;;;;;;27.60;78.93;100744.91;4868546;29;20086;-74
2022/05/14 16:23:01;;;;;;;7.78;6.40;;;;;;;26.97;82.66;100756.63;4880430;29;20037;-73
2022/05/14 16:25:47;;;;;;;7.07;6.38;;;;;;;27.27;81.22;100759.47;4880405;29;20039;-75
2022/05/14 16:28:33;;;;;;;9.18;6.93;;;;;;;27.40;80.98;100748.47;4867275;29;20033;-75
2022/05/14 16:31:25;;;;;;;8.00;6.82;;;;;;;27.41;81.09;100753.72;4867713;29;20101;-74
2022/05/14 16:34:12;;;;;;;10.70;7.47;;;;;;;26.71;84.89;100751.75;4880844;29;20044;-74
2022/05/14 16:36:57;;;;;;;10.13;6.68;;;;;;;26.69;85.17;100753.72;4867143;29;20040;-75
2022/05/14 16:39:43;;;;;;;11.77;7.00;;;;;;;26.97;85.25;100750.44;4881449;29;20033;-75
2022/05/14 16:42:29;;;;;;;9.00;7.40;;;;;;;26.90;86.41;100746.53;4880265;29;20033;-75
2022/05/14 16:45:15;;;;;;;11.48;7.07;;;;;;;27.03;85.52;100744.50;4880889;29;20040;-74
2022/05/14 16:48:01;;;;;;;12.05;7.20;;;;;;;26.72;87.59;100746.25;4880120;29;20048;-75
2022/05/14 16:50:47;;;;;;;9.40;7.00;;;;;;;26.63;89.32;100741.66;4880143;29;20032;-75
2022/05/14 16:53:38;;;;;;;12.10;7.20;;;;;;;26.93;88.68;100740.91;4879737;29;20044;-74
2022/05/14 16:56:24;;;;;;;12.57;8.48;;;;;;;26.80;90.70;100738.41;4880136;29;20040;-75
2022/05/14 16:59:11;;;;;;;12.20;7.53;;;;;;;26.64;91.10;100737.13;4880734;29;20033;-74
2022/05/14 17:01:57;;;;;;;10.30;7.80;;;;;;;26.69;91.24;100740.28;4880091;29;20021;-75
2022/05/14 17:04:43;;;;;;;10.82;7.15;;;;;;;26.56;91.51;100750.31;4880432;29;20382;-74
2022/05/14 17:07:30;;;;;;;9.55;7.95;;;;;;;26.58;91.84;100764.50;4880617;29;20108;-73
2022/05/14 17:10:23;;;;;;;10.93;7.45;;;;;;;26.04;95.93;100771.69;4881201;29;20044;-73
2022/05/14 17:13:10;;;;;;;10.55;8.13;;;;;;;26.27;95.84;100781.41;4883460;29;20370;-75
2022/05/14 17:15:56;;;;;;;8.75;7.50;;;;;;;26.31;95.75;100781.03;4870508;29;20037;-74
2022/05/14 17:18:42;;;;;;;10.80;7.85;;;;;;;26.12;99.12;100771.91;4883108;29;20360;-74
2022/05/14 17:21:28;;;;;;;9.85;7.90;;;;;;;26.13;98.96;100760.19;4884467;29;20017;-74
2022/05/14 17:24:13;;;;;;;10.25;8.02;;;;;;;26.07;99.63;100763.34;4883819;29;20064;-73
2022/05/14 17:27:02;;;;;;;9.27;8.13;;;;;;;25.86;100.00;100773.09;4870704;29;20438;-73
2022/05/14 17:29:48;;;;;;;10.07;7.88;;;;;;;25.81;100.00;100778.00;4883151;29;20033;-74
2022/05/14 17:32:35;;;;;;;10.18;8.00;;;;;;;25.96;100.00;100780.34;4871002;29;20080;-73
2022/05/14 17:35:20;;;;;;;11.20;7.82;;;;;;;26.06;100.00;100786.69;4883606;29;20043;-73
2022/05/14 17:41:11;;;;;;;11.32;8.13;;;;;;;26.06;100.00;100816.22;4883645;29;20029;-74
2022/05/14 17:43:57;;;;;;;13.82;8.50;;;;;;;25.62;100.00;100826.03;4883816;29;20040;-74
2022/05/14 17:46:43;;;;;;;11.23;8.35;;;;;;;25.54;100.00;100826.63;4870028;29;20051;-74